Time;durP1;ratioP1;P1;durP2;ratioP2;P2;SDS_P1;SDS_P2;PMS_P1;PMS_P2;Temp;Humidity;BMP_temperature;BMP_pressure;BME280_temperature;BME280_humidity;BME280_pressure;Samples;Min_cycle;Max_cycle;Signal;HPM_P1;HPM_P2
2022/03/05 00:01:01;;;;;;;27.30;15.70;;;;;;;0.19;79.61;99067.69;218831;1276;22686;-70
2022/03/05 00:06:04;;;;;;;28.70;15.70;;;;;;;0.18;79.73;99068.64;218885;1276;24245;-68
2022/03/05 00:11:07;;;;;;;32.10;16.20;;;;;;;0.15;79.80;99075.38;218660;1276;22644;-68
2022/03/05 00:16:09;;;;;;;32.20;15.60;;;;;;;0.13;79.61;99073.23;218691;1276;22636;-69
2022/03/05 00:21:12;;;;;;;32.10;16.80;;;;;;;0.11;79.90;99072.81;218578;1276;22573;-69
2022/03/05 00:26:16;;;;;;;31.20;16.00;;;;;;;0.09;80.18;99075.52;218771;1276;22476;-69
2022/03/05 00:31:19;;;;;;;35.30;17.20;;;;;;;0.09;79.98;99079.90;218723;1276;22691;-69
2022/03/05 00:36:21;;;;;;;33.20;17.20;;;;;;;0.11;80.10;99079.33;218835;1276;24435;-69
2022/03/05 00:41:26;;;;;;;30.80;16.50;;;;;;;0.11;80.19;99075.65;218698;1276;22946;-69
2022/03/05 00:46:28;;;;;;;32.90;16.40;;;;;;;0.12;80.13;99074.30;218749;1277;22534;-69
2022/03/05 00:51:31;;;;;;;31.60;16.70;;;;;;;0.11;80.20;99077.50;218794;1276;25682;-70
2022/03/05 00:56:33;;;;;;;31.50;16.00;;;;;;;0.11;80.12;99077.55;218853;1276;22867;-69
2022/03/05 01:01:36;;;;;;;35.90;18.10;;;;;;;0.12;80.38;99080.25;218668;1276;25688;-69
2022/03/05 01:06:39;;;;;;;33.80;17.90;;;;;;;0.14;80.40;99076.84;218951;1277;25666;-69
2022/03/05 01:12:04;;;;;;;33.70;18.20;;;;;;;0.14;80.50;99071.65;218676;1276;25671;-69
2022/03/05 01:17:19;;;;;;;35.40;18.00;;;;;;;0.14;80.39;99070.76;219065;1276;22557;-69
2022/03/05 01:22:22;;;;;;;36.80;18.10;;;;;;;0.16;80.54;99069.85;218997;1277;22477;-69
2022/03/05 01:27:25;;;;;;;39.50;20.90;;;;;;;0.20;80.83;99069.74;218760;1276;24259;-68
2022/03/05 01:32:27;;;;;;;39.60;20.20;;;;;;;0.23;80.43;99068.81;218591;1276;25396;-70
2022/03/05 01:37:31;;;;;;;34.50;18.40;;;;;;;0.22;80.28;99067.96;218811;1276;25451;-69
2022/03/05 01:42:33;;;;;;;32.40;17.50;;;;;;;0.22;80.50;99068.77;218723;1276;25716;-70
2022/03/05 01:47:48;;;;;;;33.10;18.20;;;;;;;0.20;80.61;99063.14;218736;1276;25422;-68
2022/03/05 01:53:06;;;;;;;35.60;17.50;;;;;;;0.21;80.72;99057.13;218654;1276;23805;-70
2022/03/05 01:58:08;;;;;;;34.30;17.50;;;;;;;0.23;80.45;99052.41;218612;1276;22605;-70
2022/03/05 02:03:11;;;;;;;39.40;19.10;;;;;;;0.25;80.58;99053.75;218588;1276;22563;-69
2022/03/05 02:08:17;;;;;;;40.50;20.20;;;;;;;0.27;80.77;99059.52;218698;1276;25363;-69
2022/03/05 02:13:41;;;;;;;36.20;18.80;;;;;;;0.28;80.37;99056.84;218549;1276;25494;-69
2022/03/05 02:18:45;;;;;;;39.50;19.60;;;;;;;0.27;80.62;99049.92;218724;1276;22618;-69
2022/03/05 02:23:48;;;;;;;39.10;18.90;;;;;;;0.27;80.45;99051.98;218706;1275;24435;-70
2022/03/05 02:28:51;;;;;;;37.30;18.50;;;;;;;0.28;80.65;99056.06;218744;1276;22562;-69
2022/03/05 02:33:55;;;;;;;35.90;19.10;;;;;;;0.26;80.54;99057.59;218582;1276;25432;-70
2022/03/05 02:38:58;;;;;;;33.20;17.60;;;;;;;0.25;80.51;99060.55;218594;1276;25482;-68
2022/03/05 02:44:01;;;;;;;34.90;19.40;;;;;;;0.24;80.51;99060.89;218787;1276;25426;-68
2022/03/05 02:49:04;;;;;;;35.30;18.90;;;;;;;0.23;80.41;99062.59;218793;1276;25941;-68
2022/03/05 02:54:27;;;;;;;36.10;18.40;;;;;;;0.20;80.59;99066.34;218774;1276;24237;-69
2022/03/05 02:59:29;;;;;;;38.80;19.60;;;;;;;0.19;80.64;99067.52;218868;1276;25382;-69
2022/03/05 03:04:31;;;;;;;37.70;19.60;;;;;;;0.17;80.70;99064.63;218890;1276;25961;-68
2022/03/05 03:09:34;;;;;;;36.30;19.10;;;;;;;0.15;80.68;99070.23;218819;1276;23736;-69
2022/03/05 03:14:36;;;;;;;35.00;19.20;;;;;;;0.14;80.76;99073.14;218773;1276;26393;-70
2022/03/05 03:19:40;;;;;;;33.90;19.10;;;;;;;0.15;81.09;99068.08;218690;1276;25621;-69
2022/03/05 03:24:43;;;;;;;39.70;19.80;;;;;;;0.15;80.91;99069.21;218947;1276;22557;-69
2022/03/05 03:29:56;;;;;;;40.30;19.70;;;;;;;0.16;80.99;99066.33;218775;1276;22582;-69
2022/03/05 03:34:59;;;;;;;35.90;19.00;;;;;;;0.17;81.01;99068.48;218774;1276;22576;-69
2022/03/05 03:40:06;;;;;;;38.00;19.00;;;;;;;0.17;81.05;99068.98;218617;1276;25526;-69
2022/03/05 03:45:10;;;;;;;38.00;20.20;;;;;;;0.17;80.88;99071.83;218800;1276;22701;-70
2022/03/05 03:50:14;;;;;;;38.40;19.20;;;;;;;0.16;81.23;99072.48;218929;1276;22541;-69
2022/03/05 03:55:20;;;;;;;44.90;21.50;;;;;;;0.16;80.96;99077.96;218614;1276;22544;-68
2022/03/05 04:00:23;;;;;;;40.20;21.50;;;;;;;0.16;81.25;99077.35;218620;1276;24297;-69
2022/03/05 04:05:27;;;;;;;42.70;20.80;;;;;;;0.18;81.23;99073.16;218659;1276;22550;-69
2022/03/05 04:10:30;;;;;;;45.50;23.50;;;;;;;0.18;81.09;99072.39;218588;1276;22543;-69
2022/03/05 04:15:32;;;;;;;58.90;28.60;;;;;;;0.20;81.34;99069.38;218658;1276;22566;-69
2022/03/05 04:20:35;;;;;;;39.40;20.20;;;;;;;0.23;81.26;99071.71;218559;1276;22558;-69
2022/03/05 04:25:37;;;;;;;43.70;22.40;;;;;;;0.25;81.19;99074.55;218588;1276;23083;-69
2022/03/05 04:30:43;;;;;;;38.70;20.40;;;;;;;0.27;81.09;99074.86;218689;1276;22560;-69
2022/03/05 04:35:45;;;;;;;38.20;20.30;;;;;;;0.28;80.99;99076.59;218592;1276;24138;-70
2022/03/05 04:40:48;;;;;;;34.10;18.50;;;;;;;0.30;80.83;99084.23;218626;1276;24284;-70
2022/03/05 04:45:51;;;;;;;33.10;18.30;;;;;;;0.30;80.92;99087.67;218690;1276;22811;-69
2022/03/05 04:50:54;;;;;;;37.30;19.90;;;;;;;0.28;80.97;99092.48;218728;1276;24188;-70
2022/03/05 04:55:56;;;;;;;31.40;17.90;;;;;;;0.26;81.08;99096.38;218746;1276;24265;-69
2022/03/05 05:00:59;;;;;;;31.00;17.00;;;;;;;0.24;80.70;99094.41;218867;1276;24259;-68
2022/03/05 05:06:06;;;;;;;30.80;17.70;;;;;;;0.22;80.82;99097.88;218945;1276;25435;-69
2022/03/05 05:11:08;;;;;;;32.90;16.70;;;;;;;0.19;80.83;99095.50;218847;1276;25576;-70
2022/03/05 05:16:14;;;;;;;31.20;17.30;;;;;;;0.15;80.55;99099.29;218866;1276;24353;-69
2022/03/05 05:21:16;;;;;;;34.50;17.90;;;;;;;0.13;80.81;99101.58;218921;1276;24157;-70
2022/03/05 05:26:19;;;;;;;32.60;18.10;;;;;;;0.09;80.55;99098.75;219007;1276;24327;-69
2022/03/05 05:31:26;;;;;;;32.70;17.30;;;;;;;0.09;80.66;99101.44;218697;1276;22538;-70
2022/03/05 05:36:29;;;;;;;32.30;18.80;;;;;;;0.09;80.65;99104.39;218593;1276;25373;-69
2022/03/05 05:41:33;;;;;;;31.20;17.50;;;;;;;0.12;80.86;99112.20;218675;1276;23112;-69
2022/03/05 05:46:45;;;;;;;32.90;18.20;;;;;;;0.12;80.76;99114.83;218578;1276;22544;-69
2022/03/05 05:51:54;;;;;;;32.00;17.00;;;;;;;0.10;80.49;99115.52;218622;1276;24290;-70
2022/03/05 05:56:57;;;;;;;29.10;16.20;;;;;;;0.08;80.49;99118.87;218897;1276;22534;-69
2022/03/05 06:01:59;;;;;;;26.40;15.90;;;;;;;0.12;80.54;99119.58;218729;1277;22555;-69
2022/03/05 06:07:02;;;;;;;30.40;16.90;;;;;;;0.17;80.34;99122.46;218634;1276;22554;-70
2022/03/05 06:12:08;;;;;;;27.20;15.30;;;;;;;0.20;80.34;99124.56;218551;1276;22791;-70
2022/03/05 06:17:14;;;;;;;33.70;16.80;;;;;;;0.21;80.37;99125.48;218679;1276;22726;-70
2022/03/05 06:22:16;;;;;;;30.60;17.30;;;;;;;0.20;80.40;99132.02;218905;1276;22569;-69
2022/03/05 06:27:18;;;;;;;30.30;16.90;;;;;;;0.23;80.23;99136.00;218587;1275;22694;-69
2022/03/05 06:32:21;;;;;;;32.20;17.70;;;;;;;0.26;79.84;99140.29;218845;1276;25655;-68
2022/03/05 06:37:24;;;;;;;28.10;15.60;;;;;;;0.31;80.06;99144.64;218794;1276;25595;-69
2022/03/05 06:42:28;;;;;;;25.40;15.10;;;;;;;0.41;80.16;99148.14;219027;1276;25211;-70
2022/03/05 06:47:30;;;;;;;32.10;16.50;;;;;;;0.53;80.14;99156.02;218760;1276;24121;-69
2022/03/05 06:52:33;;;;;;;26.50;15.20;;;;;;;0.62;79.83;99161.02;218633;1277;23731;-70
2022/03/05 06:57:35;;;;;;;27.70;16.70;;;;;;;0.66;79.63;99163.11;218850;1276;24042;-69
2022/03/05 07:02:42;;;;;;;29.10;17.30;;;;;;;0.70;79.16;99165.40;218758;1276;22537;-69
2022/03/05 07:07:44;;;;;;;28.20;15.80;;;;;;;0.77;79.11;99163.36;218875;1276;23779;-68
2022/03/05 07:12:47;;;;;;;27.40;15.90;;;;;;;0.90;79.15;99163.34;218758;1276;25261;-69
2022/03/05 07:17:51;;;;;;;29.20;17.00;;;;;;;1.00;78.78;99167.97;218694;1276;25405;-70
2022/03/05 07:23:04;;;;;;;26.50;16.40;;;;;;;1.15;78.96;99170.52;218752;1277;154641;-69
2022/03/05 07:28:09;;;;;;;28.60;17.90;;;;;;;1.36;78.69;99175.36;218622;1276;22618;-70
2022/03/05 07:33:11;;;;;;;30.60;19.90;;;;;;;1.50;78.31;99175.63;218753;1276;25467;-70
2022/03/05 07:38:14;;;;;;;26.00;15.10;;;;;;;1.68;77.90;99180.05;218643;1276;24562;-70
2022/03/05 07:43:16;;;;;;;27.10;16.40;;;;;;;1.77;77.25;99186.02;218078;1277;25256;-69
2022/03/05 07:48:19;;;;;;;25.90;16.70;;;;;;;1.97;77.49;99188.31;218393;1276;22549;-69
2022/03/05 07:53:22;;;;;;;25.40;15.60;;;;;;;2.14;76.91;99186.23;218417;1277;22730;-69
2022/03/05 07:58:27;;;;;;;22.80;14.70;;;;;;;2.29;76.51;99185.73;218138;1276;22561;-69
2022/03/05 08:03:32;;;;;;;23.30;14.20;;;;;;;2.37;76.19;99193.64;218330;1276;22562;-69
2022/03/05 08:08:34;;;;;;;22.80;13.90;;;;;;;2.48;75.92;99197.30;218464;1276;22708;-68
2022/03/05 08:13:43;;;;;;;23.80;14.40;;;;;;;2.70;75.67;99198.92;218465;1276;23526;-69
2022/03/05 08:18:45;;;;;;;26.90;15.80;;;;;;;2.91;75.09;99202.92;218404;1276;22556;-68
2022/03/05 08:24:08;;;;;;;27.80;15.00;;;;;;;3.05;74.56;99204.29;218179;1277;22551;-66
2022/03/05 08:29:11;;;;;;;25.60;15.80;;;;;;;3.08;73.82;99204.27;218653;1276;24378;-68
2022/03/05 08:34:13;;;;;;;24.10;15.50;;;;;;;3.13;73.43;99206.77;218536;1276;22551;-67
2022/03/05 08:39:16;;;;;;;22.40;14.00;;;;;;;3.27;73.53;99204.46;218616;1276;24149;-67
2022/03/05 08:44:19;;;;;;;23.00;15.00;;;;;;;3.42;72.87;99214.11;218808;1276;22601;-67
2022/03/05 08:49:22;;;;;;;21.40;14.10;;;;;;;3.50;72.36;99215.32;218543;1276;22560;-67
2022/03/05 08:54:25;;;;;;;23.30;14.60;;;;;;;3.62;72.27;99217.69;218544;1276;22671;-68
2022/03/05 08:59:27;;;;;;;23.00;14.50;;;;;;;3.75;71.85;99217.34;218591;1277;22625;-67
2022/03/05 09:04:31;;;;;;;24.10;15.10;;;;;;;3.89;71.33;99218.64;218303;1276;22560;-67
2022/03/05 09:09:37;;;;;;;22.30;15.10;;;;;;;3.99;70.79;99213.06;218342;1278;22615;-67
2022/03/05 09:14:43;;;;;;;20.10;14.20;;;;;;;4.09;70.43;99214.86;218491;1278;23029;-67
2022/03/05 09:19:45;;;;;;;21.60;13.40;;;;;;;4.25;70.49;99215.74;218160;1276;22716;-67
2022/03/05 09:24:48;;;;;;;21.20;13.00;;;;;;;4.40;69.41;99218.38;218679;1276;23062;-67
2022/03/05 09:29:50;;;;;;;24.40;15.30;;;;;;;4.45;68.89;99219.68;218553;1276;24427;-67
2022/03/05 09:34:59;;;;;;;19.40;12.10;;;;;;;4.51;68.44;99222.41;218742;1276;22656;-66
2022/03/05 09:40:04;;;;;;;20.60;13.10;;;;;;;4.41;66.86;99222.63;218619;1277;25265;-66
2022/03/05 09:45:09;;;;;;;19.60;12.50;;;;;;;4.42;67.85;99222.02;218679;1276;24260;-67
2022/03/05 09:50:14;;;;;;;22.00;12.70;;;;;;;4.54;67.11;99219.89;218422;1277;24281;-68
2022/03/05 09:55:17;;;;;;;17.40;11.80;;;;;;;4.56;66.34;99220.58;218710;1276;24455;-67
2022/03/05 10:00:19;;;;;;;21.70;13.40;;;;;;;4.61;66.09;99217.84;218572;1277;22960;-66
2022/03/05 10:05:26;;;;;;;20.10;13.60;;;;;;;4.66;65.20;99211.30;218484;1276;24255;-68
2022/03/05 10:10:29;;;;;;;21.90;14.50;;;;;;;4.69;64.37;99210.14;218577;1277;22566;-68
2022/03/05 10:15:36;;;;;;;20.90;13.80;;;;;;;4.81;64.99;99213.05;218432;1278;22725;-67
2022/03/05 10:20:50;;;;;;;20.30;13.70;;;;;;;5.08;64.84;99213.77;218847;1278;22555;-68
2022/03/05 10:25:55;;;;;;;18.30;12.00;;;;;;;5.12;63.16;99211.05;218422;1278;22621;-67
2022/03/05 10:31:52;;;;;;;18.20;12.00;;;;;;;5.10;63.20;99213.63;218426;1278;24259;-68
2022/03/05 10:37:14;;;;;;;18.50;12.50;;;;;;;4.93;61.79;99218.99;218584;1278;24278;-67
2022/03/05 10:42:24;;;;;;;23.20;13.30;;;;;;;4.77;61.79;99219.46;218547;1279;25391;-68
2022/03/05 10:47:41;;;;;;;20.60;12.90;;;;;;;4.63;61.28;99220.65;218490;1278;22567;-67
2022/03/05 10:52:51;;;;;;;18.10;12.20;;;;;;;4.58;61.80;99215.78;218408;1279;24241;-68
2022/03/05 10:58:16;;;;;;;;;;;;;;;4.35;61.43;99223.20;218422;1278;25984;-67
2022/03/05 11:03:22;;;;;;;17.90;11.00;;;;;;;4.16;61.37;99218.29;218497;1278;22588;-67
2022/03/05 11:08:27;;;;;;;15.50;10.20;;;;;;;3.98;61.20;99219.98;218395;1278;23111;-68
2022/03/05 11:13:30;;;;;;;16.50;10.60;;;;;;;3.86;60.79;99212.54;218481;1278;22677;-67
2022/03/05 11:18:33;;;;;;;15.10;9.30;;;;;;;3.75;60.59;99215.43;218623;1277;22484;-68
2022/03/05 11:23:39;;;;;;;17.00;10.30;;;;;;;3.69;60.49;99216.09;218352;1278;26526;-67
2022/03/05 11:28:48;;;;;;;14.20;8.50;;;;;;;3.71;60.87;99216.13;218246;1278;24134;-67
2022/03/05 11:33:51;;;;;;;8.70;5.10;;;;;;;3.73;59.92;99212.25;218588;1278;25272;-67
2022/03/05 11:39:16;;;;;;;6.00;3.90;;;;;;;3.64;58.06;99214.13;218576;1281;22588;-68
2022/03/05 11:44:41;;;;;;;9.80;5.80;;;;;;;3.35;57.42;99219.80;218904;1278;22697;-69
2022/03/05 11:49:58;;;;;;;8.00;4.10;;;;;;;3.16;57.00;99221.30;218547;1278;22556;-67
2022/03/05 11:55:16;;;;;;;3.20;2.70;;;;;;;2.99;56.84;99224.30;218314;1278;22582;-66
2022/03/05 12:00:25;;;;;;;3.90;2.50;;;;;;;2.94;56.83;99214.11;218511;1277;25558;-69
2022/03/05 12:05:44;;;;;;;6.50;3.20;;;;;;;3.02;57.43;99207.97;218470;1278;26355;-69
2022/03/05 12:11:13;;;;;;;5.40;3.10;;;;;;;3.24;57.52;99203.77;218616;1277;22573;-70
2022/03/05 12:16:18;;;;;;;6.60;3.80;;;;;;;3.43;56.98;99204.34;218689;1277;24264;-71
2022/03/05 12:21:31;;;;;;;5.10;3.70;;;;;;;3.52;56.52;99204.44;218579;1277;24335;-69
2022/03/05 12:27:01;;;;;;;6.50;4.50;;;;;;;3.67;56.56;99203.86;218541;1278;23828;-69
2022/03/05 12:32:07;;;;;;;7.70;4.20;;;;;;;3.78;57.24;99200.21;218541;1277;22553;-69
2022/03/05 12:37:12;;;;;;;9.60;6.00;;;;;;;3.86;57.37;99193.81;218740;1278;22605;-70
2022/03/05 12:42:15;;;;;;;8.40;6.00;;;;;;;3.88;57.89;99194.19;218688;1278;23270;-71
2022/03/05 12:47:18;;;;;;;10.30;6.00;;;;;;;3.87;58.35;99193.52;219563;1277;24592;-69
2022/03/05 12:52:20;;;;;;;8.90;5.70;;;;;;;4.06;57.71;99195.64;218471;1277;24335;-70
2022/03/05 12:57:25;;;;;;;8.30;4.90;;;;;;;4.24;57.46;99194.29;218598;1277;24330;-70
2022/03/05 13:02:31;;;;;;;9.90;5.50;;;;;;;4.45;57.55;99191.94;218246;1276;24116;-70
2022/03/05 13:07:35;;;;;;;9.80;6.40;;;;;;;4.63;57.17;99197.45;218249;1278;24332;-70
2022/03/05 13:12:40;;;;;;;10.30;7.10;;;;;;;4.57;56.44;99196.40;218332;1277;24464;-69
2022/03/05 13:17:58;;;;;;;12.80;7.70;;;;;;;4.49;56.44;99197.73;218803;1277;24270;-70
2022/03/05 13:23:22;;;;;;;9.30;6.60;;;;;;;4.39;56.35;99201.16;218421;1277;22578;-69
2022/03/05 13:28:32;;;;;;;10.10;6.80;;;;;;;4.35;56.46;99201.73;218798;1277;24332;-71
2022/03/05 13:34:01;;;;;;;11.80;7.40;;;;;;;4.38;56.32;99201.61;218709;1277;22534;-71
2022/03/05 13:39:17;;;;;;;9.30;6.30;;;;;;;4.26;56.35;99199.05;218418;1276;22598;-69
2022/03/05 13:44:36;;;;;;;10.40;6.50;;;;;;;4.20;56.50;99198.48;218679;1276;25241;-69
2022/03/05 13:49:47;;;;;;;10.20;6.60;;;;;;;4.21;56.55;99203.41;218551;1277;25255;-70
2022/03/05 13:54:53;;;;;;;13.40;6.50;;;;;;;4.20;56.13;99206.95;218580;1277;25360;-69
2022/03/05 14:00:14;;;;;;;11.20;7.10;;;;;;;4.15;55.99;99200.95;218527;1277;22792;-69
2022/03/05 14:05:23;;;;;;;11.00;6.70;;;;;;;3.95;55.84;99187.42;218923;1276;25412;-69
2022/03/05 14:10:26;;;;;;;13.40;7.50;;;;;;;3.85;56.33;99183.30;218784;1277;25402;-69
2022/03/05 14:15:32;;;;;;;11.80;6.60;;;;;;;3.84;56.16;99191.23;218671;1276;26431;-70
2022/03/05 14:20:45;;;;;;;12.10;7.30;;;;;;;3.79;56.05;99189.11;218726;1276;26374;-70
2022/03/05 14:25:56;;;;;;;10.90;6.60;;;;;;;3.68;55.97;99188.95;218648;1276;22609;-70
2022/03/05 14:31:01;;;;;;;12.70;7.10;;;;;;;3.56;56.01;99188.75;218623;1276;26509;-69
2022/03/05 14:36:04;;;;;;;10.80;7.20;;;;;;;3.45;55.81;99190.09;218355;1276;25383;-70
2022/03/05 14:41:09;;;;;;;12.80;8.00;;;;;;;3.31;55.49;99191.89;218664;1276;25424;-70
2022/03/05 14:46:14;;;;;;;11.60;7.30;;;;;;;3.19;55.75;99188.75;219665;1277;25539;-70
2022/03/05 14:51:17;;;;;;;13.60;8.60;;;;;;;3.11;55.79;99187.45;218713;1276;22653;-69
2022/03/05 14:56:21;;;;;;;14.70;8.90;;;;;;;3.05;55.91;99189.30;218769;1277;22538;-70
2022/03/05 15:01:26;;;;;;;15.00;8.40;;;;;;;3.03;57.41;99191.53;218740;1276;23769;-69
2022/03/05 15:06:29;;;;;;;14.90;9.40;;;;;;;2.98;58.01;99189.50;218912;1276;22559;-69
2022/03/05 15:11:41;;;;;;;16.10;9.60;;;;;;;2.96;57.76;99193.57;218909;1277;22720;-69
2022/03/05 15:16:44;;;;;;;14.40;8.50;;;;;;;2.89;58.26;99185.36;218786;1277;25002;-69
2022/03/05 15:22:07;;;;;;;13.40;7.70;;;;;;;2.71;58.66;99193.65;218812;1277;25429;-69
2022/03/05 15:27:13;;;;;;;15.80;8.90;;;;;;;2.49;58.91;99203.52;218810;1277;24115;-70
2022/03/05 15:32:16;;;;;;;17.70;11.60;;;;;;;2.30;59.41;99203.65;218647;1276;25437;-70
2022/03/05 15:37:18;;;;;;;17.00;11.40;;;;;;;2.17;60.03;99208.20;218821;1277;25357;-69
2022/03/05 15:42:30;;;;;;;16.50;10.50;;;;;;;2.06;60.67;99201.80;218805;1276;22567;-70
2022/03/05 15:47:34;;;;;;;15.40;9.70;;;;;;;1.96;61.61;99199.52;218732;1276;26378;-70
2022/03/05 15:52:37;;;;;;;14.80;9.40;;;;;;;1.82;62.01;99199.67;218690;1276;22710;-70
2022/03/05 15:57:39;;;;;;;19.40;10.30;;;;;;;1.68;62.95;99200.91;218403;1276;22573;-70
2022/03/05 16:02:44;;;;;;;15.70;8.80;;;;;;;1.56;63.08;99201.61;219678;1276;26485;-70
2022/03/05 16:07:46;;;;;;;17.30;8.90;;;;;;;1.46;63.59;99199.34;219325;1276;26230;-70
2022/03/05 16:12:49;;;;;;;14.30;8.80;;;;;;;1.39;64.16;99197.31;218746;1276;25344;-70
2022/03/05 16:17:53;;;;;;;18.30;10.50;;;;;;;1.34;64.34;99191.09;218780;1276;22925;-70
2022/03/05 16:22:56;;;;;;;16.10;9.60;;;;;;;1.32;64.75;99182.59;218789;1276;22571;-70
2022/03/05 16:28:11;;;;;;;15.50;9.00;;;;;;;1.28;64.98;99183.10;218851;1277;22554;-69
2022/03/05 16:33:35;;;;;;;16.60;8.60;;;;;;;1.23;65.10;99191.27;218658;1276;25251;-70
2022/03/05 16:38:39;;;;;;;23.00;11.30;;;;;;;1.20;65.20;99199.96;218756;1276;25261;-70
2022/03/05 16:43:50;;;;;;;19.80;11.10;;;;;;;1.17;65.15;99198.02;218957;1276;25375;-69
2022/03/05 16:48:53;;;;;;;17.60;10.10;;;;;;;1.15;65.29;99199.63;219485;1277;22607;-70
2022/03/05 16:53:59;;;;;;;17.20;9.70;;;;;;;1.12;64.63;99200.91;219477;1276;22633;-69
2022/03/05 16:59:02;;;;;;;20.90;10.70;;;;;;;1.07;63.71;99208.41;218868;1276;25263;-70
2022/03/05 17:04:05;;;;;;;19.40;10.50;;;;;;;1.03;63.28;99216.16;218766;1276;22558;-70
2022/03/05 17:09:07;;;;;;;25.60;12.60;;;;;;;1.01;63.01;99219.47;218733;1276;22552;-70
2022/03/05 17:14:14;;;;;;;22.20;10.00;;;;;;;0.99;62.92;99220.58;218483;1277;22631;-70
2022/03/05 17:19:16;;;;;;;19.60;9.70;;;;;;;0.99;62.59;99222.16;218817;1276;24311;-70
2022/03/05 17:24:19;;;;;;;14.60;8.70;;;;;;;1.01;62.66;99223.11;218543;1277;22943;-70
2022/03/05 17:29:21;;;;;;;18.70;10.00;;;;;;;1.03;62.54;99223.96;218533;1276;22657;-69
2022/03/05 17:34:24;;;;;;;23.40;13.10;;;;;;;1.04;62.16;99224.89;218577;1276;22563;-70
2022/03/05 17:39:27;;;;;;;42.70;23.80;;;;;;;1.04;62.01;99231.49;218724;1276;24250;-69
2022/03/05 17:44:32;;;;;;;36.00;19.70;;;;;;;1.06;62.14;99234.70;218841;1276;22540;-69
2022/03/05 17:49:35;;;;;;;29.50;14.00;;;;;;;1.05;62.38;99234.95;219074;1276;24243;-70
2022/03/05 17:54:39;;;;;;;23.10;10.90;;;;;;;1.03;62.07;99236.58;218820;1276;22565;-71
2022/03/05 17:59:51;;;;;;;20.70;10.70;;;;;;;1.00;62.43;99235.80;218762;1276;22742;-69
2022/03/05 18:04:54;;;;;;;24.10;12.50;;;;;;;0.95;62.06;99242.16;218857;1276;22559;-70
2022/03/05 18:09:56;;;;;;;22.50;11.90;;;;;;;0.91;61.95;99239.26;218596;1276;22597;-69
2022/03/05 18:15:01;;;;;;;33.30;16.30;;;;;;;0.92;61.92;99246.33;218526;1277;22561;-70
2022/03/05 18:20:07;;;;;;;24.40;12.80;;;;;;;0.91;61.60;99251.73;218503;1276;22694;-70
2022/03/05 18:25:11;;;;;;;25.20;13.00;;;;;;;0.88;61.30;99249.67;218546;1276;22629;-70
2022/03/05 18:30:26;;;;;;;26.40;13.70;;;;;;;0.85;61.03;99248.96;218794;1276;23715;-69
2022/03/05 18:35:44;;;;;;;26.50;13.80;;;;;;;0.82;61.05;99256.24;218746;1276;22577;-70
2022/03/05 18:40:50;;;;;;;24.60;13.10;;;;;;;0.77;60.90;99248.96;218516;1276;24332;-70
2022/03/05 18:45:52;;;;;;;21.40;12.30;;;;;;;0.72;60.85;99249.20;219467;1276;23322;-70
2022/03/05 18:50:59;;;;;;;25.70;13.40;;;;;;;0.67;60.86;99248.17;219422;1276;22549;-70
2022/03/05 18:56:02;;;;;;;24.20;12.40;;;;;;;0.65;60.36;99250.94;218567;1276;24288;-70
2022/03/05 19:01:05;;;;;;;25.00;12.80;;;;;;;0.64;60.17;99253.17;218689;1276;22481;-70
2022/03/05 19:06:08;;;;;;;21.70;12.40;;;;;;;0.64;60.42;99258.30;218870;1276;22718;-71
2022/03/05 19:11:14;;;;;;;25.40;13.90;;;;;;;0.65;60.15;99253.91;218673;1276;25155;-69
2022/03/05 19:16:35;;;;;;;29.90;14.10;;;;;;;0.62;59.94;99254.16;218760;1276;22560;-70
2022/03/05 19:21:53;;;;;;;30.30;14.00;;;;;;;0.61;59.95;99255.72;218502;1276;228353;-70
2022/03/05 19:26:58;;;;;;;33.30;15.90;;;;;;;0.60;60.43;99258.36;218760;1276;24342;-70
2022/03/05 19:32:05;;;;;;;42.80;21.00;;;;;;;0.53;60.59;99263.02;218503;1276;22550;-70
2022/03/05 19:37:29;;;;;;;34.60;18.50;;;;;;;0.49;60.57;99272.11;218687;1276;22582;-70
2022/03/05 19:42:34;;;;;;;37.60;17.20;;;;;;;0.47;60.63;99281.21;218740;1276;24270;-70
2022/03/05 19:47:37;;;;;;;34.90;16.70;;;;;;;0.44;60.68;99278.80;218719;1276;22629;-70
2022/03/05 19:53:02;;;;;;;32.30;16.30;;;;;;;0.42;60.43;99278.84;218652;1276;22482;-70
2022/03/05 19:58:04;;;;;;;34.40;17.00;;;;;;;0.40;60.32;99283.64;218792;1276;22993;-70
2022/03/05 20:03:13;;;;;;;36.70;18.40;;;;;;;0.36;60.25;99287.30;219652;1276;22709;-70
2022/03/05 20:08:15;;;;;;;35.60;17.90;;;;;;;0.31;60.74;99289.14;218651;1276;22535;-70
2022/03/05 20:13:27;;;;;;;35.30;19.60;;;;;;;0.30;60.76;99290.04;218616;1276;22550;-71
2022/03/05 20:18:29;;;;;;;39.90;19.70;;;;;;;0.27;60.91;99289.90;219001;1276;22537;-70
2022/03/05 20:23:45;;;;;;;41.50;20.60;;;;;;;0.24;61.01;99289.29;218524;1276;22629;-71
2022/03/05 20:28:48;;;;;;;41.20;18.80;;;;;;;0.21;60.74;99286.91;219649;1276;22538;-70
2022/03/05 20:34:24;;;;;;;40.00;20.30;;;;;;;0.23;61.22;99289.70;218570;1276;22574;-69
2022/03/05 20:39:27;;;;;;;36.20;19.20;;;;;;;0.25;60.85;99290.87;218655;1276;24631;-70
2022/03/05 20:44:32;;;;;;;42.50;20.70;;;;;;;0.25;60.60;99294.52;218631;1276;22537;-70
2022/03/05 20:49:41;;;;;;;46.70;23.50;;;;;;;0.22;60.72;99299.72;218500;1276;26185;-70
2022/03/05 20:54:45;;;;;;;44.60;21.20;;;;;;;0.17;60.84;99304.39;218693;1276;25332;-70
2022/03/05 20:59:50;;;;;;;50.40;23.40;;;;;;;0.14;60.82;99305.85;218643;1276;26328;-72
2022/03/05 21:04:52;;;;;;;44.90;22.40;;;;;;;0.11;60.68;99306.73;219534;1276;24231;-69
2022/03/05 21:09:56;;;;;;;48.20;24.30;;;;;;;0.09;60.43;99305.46;218628;1276;25265;-71
2022/03/05 21:14:58;;;;;;;42.10;22.70;;;;;;;0.06;60.40;99301.83;218406;1276;24343;-71
2022/03/05 21:20:00;;;;;;;53.10;23.70;;;;;;;0.05;60.47;99303.41;218675;1276;24231;-70
2022/03/05 21:25:06;;;;;;;55.80;26.40;;;;;;;0.05;60.56;99308.27;218611;1276;22566;-69
2022/03/05 21:30:10;;;;;;;52.90;26.30;;;;;;;0.05;60.72;99307.62;218678;1276;24251;-69
2022/03/05 21:35:22;;;;;;;54.30;25.80;;;;;;;-0.03;61.00;99309.55;218652;1276;22550;-70
2022/03/05 21:40:24;;;;;;;58.20;26.40;;;;;;;-0.14;61.22;99306.97;218653;1276;22602;-69
2022/03/05 21:45:36;;;;;;;46.50;23.80;;;;;;;-0.19;61.47;99303.98;218537;1276;22554;-69
2022/03/05 21:50:38;;;;;;;43.30;22.10;;;;;;;-0.22;61.61;99300.30;218638;1276;22876;-70
2022/03/05 21:55:41;;;;;;;46.60;21.90;;;;;;;-0.23;61.54;99300.90;218757;1276;22739;-69
2022/03/05 22:00:44;;;;;;;46.50;22.40;;;;;;;-0.23;61.56;99300.78;218825;1276;25142;-69
2022/03/05 22:05:47;;;;;;;42.80;20.70;;;;;;;-0.20;61.43;99299.77;218916;1276;22595;-69
2022/03/05 22:10:49;;;;;;;43.20;21.40;;;;;;;-0.21;61.27;99300.54;218850;1277;22542;-69
2022/03/05 22:15:52;;;;;;;43.10;21.00;;;;;;;-0.27;61.26;99302.00;218458;1276;24349;-70
2022/03/05 22:20:55;;;;;;;41.70;20.40;;;;;;;-0.33;61.58;99300.86;218617;1276;24451;-69
2022/03/05 22:25:57;;;;;;;42.00;22.00;;;;;;;-0.37;61.96;99297.83;218602;1276;25324;-69
2022/03/05 22:30:59;;;;;;;45.10;21.80;;;;;;;-0.39;61.97;99290.19;218543;1276;25976;-70
2022/03/05 22:36:05;;;;;;;45.60;22.70;;;;;;;-0.40;61.76;99290.02;218458;1275;25603;-69
2022/03/05 22:41:08;;;;;;;52.40;25.10;;;;;;;-0.41;62.09;99290.75;218483;1276;22582;-71
2022/03/05 22:46:10;;;;;;;48.70;22.80;;;;;;;-0.47;62.37;99290.99;218709;1276;24240;-70
2022/03/05 22:51:13;;;;;;;49.30;23.50;;;;;;;-0.52;62.62;99285.66;218530;1276;22562;-69
2022/03/05 22:56:16;;;;;;;43.10;21.60;;;;;;;-0.53;62.97;99284.08;218827;1276;22708;-70
2022/03/05 23:01:23;;;;;;;42.20;21.20;;;;;;;-0.55;63.19;99280.80;218502;1276;22718;-68
2022/03/05 23:12:03;;;;;;;42.00;21.60;;;;;;;-0.60;63.85;99278.91;218551;1276;22547;-70
2022/03/05 23:17:25;;;;;;;42.80;21.80;;;;;;;-0.56;64.15;99273.76;218493;1275;22571;-70
2022/03/05 23:22:27;;;;;;;43.50;22.30;;;;;;;-0.56;64.28;99273.52;218486;1276;22537;-70
2022/03/05 23:27:30;;;;;;;43.50;21.90;;;;;;;-0.56;64.63;99273.14;218454;1276;22626;-70
2022/03/05 23:32:41;;;;;;;48.70;23.30;;;;;;;-0.54;64.85;99268.89;218645;1276;24273;-69
2022/03/05 23:37:43;;;;;;;46.50;23.40;;;;;;;-0.48;65.20;99257.76;218710;1276;24404;-69